Time;durP1;ratioP1;P1;durP2;ratioP2;P2;SDS_P1;SDS_P2;PMS_P1;PMS_P2;Temp;Humidity;BMP_temperature;BMP_pressure;BME280_temperature;BME280_humidity;BME280_pressure;Samples;Min_cycle;Max_cycle;Signal;HPM_P1;HPM_P2
2021/08/09 00:02:02;;;;;;;0.57;0.28;;;;;;;;;;5070937;28;20020;-58
2021/08/09 00:04:27;;;;;;;0.75;0.30;;;;;;;;;;5071426;28;20025;-58
2021/08/09 00:06:53;;;;;;;0.70;0.25;;;;;;;;;;5070801;28;20048;-59
2021/08/09 00:09:18;;;;;;;1.25;0.47;;;;;;;;;;5070344;28;20025;-58
2021/08/09 00:11:43;;;;;;;1.98;0.28;;;;;;;;;;5071439;28;20024;-59
2021/08/09 00:14:08;;;;;;;1.23;0.25;;;;;;;;;;5070235;28;20066;-59
2021/08/09 00:16:33;;;;;;;1.30;0.20;;;;;;;;;;5048678;28;20382;-59
2021/08/09 00:18:59;;;;;;;1.27;0.40;;;;;;;;;;5067249;28;20016;-59
2021/08/09 00:21:24;;;;;;;1.73;0.30;;;;;;;;;;5070881;28;20017;-59
2021/08/09 00:23:49;;;;;;;1.65;0.40;;;;;;;;;;5071426;28;20021;-59
2021/08/09 00:26:15;;;;;;;1.27;0.30;;;;;;;;;;5070966;28;20028;-56
2021/08/09 00:28:40;;;;;;;1.48;0.40;;;;;;;;;;5070799;28;20107;-58
2021/08/09 00:31:05;;;;;;;0.50;0.20;;;;;;;;;;5071489;28;20027;-59
2021/08/09 00:33:31;;;;;;;0.93;0.20;;;;;;;;;;5070220;28;20081;-58
2021/08/09 00:35:56;;;;;;;2.03;0.30;;;;;;;;;;5070906;28;20044;-58
2021/08/09 00:38:21;;;;;;;0.90;0.28;;;;;;;;;;5073553;28;20016;-57
2021/08/09 00:40:47;;;;;;;1.27;0.22;;;;;;;;;;5074488;28;20027;-58
2021/08/09 00:43:12;;;;;;;0.55;0.30;;;;;;;;;;5074085;28;20050;-59
2021/08/09 00:45:38;;;;;;;0.82;0.32;;;;;;;;;;5073162;28;20020;-59
2021/08/09 00:48:04;;;;;;;1.40;0.47;;;;;;;;;;5070573;28;20051;-60
2021/08/09 00:50:30;;;;;;;1.17;0.30;;;;;;;;;;5073745;28;20107;-59
2021/08/09 00:52:55;;;;;;;1.00;0.45;;;;;;;;;;5055868;28;20038;-59
2021/08/09 00:55:20;;;;;;;2.42;0.50;;;;;;;;;;5074560;28;20082;-59
2021/08/09 00:57:46;;;;;;;1.63;0.30;;;;;;;;;;5056134;28;20140;-59
2021/08/09 01:00:11;;;;;;;2.72;0.38;;;;;;;;;;5073887;28;20028;-59
2021/08/09 01:02:37;;;;;;;1.52;0.50;;;;;;;;;;5073966;28;20016;-59
2021/08/09 01:05:03;;;;;;;0.60;0.40;;;;;;;;;;5065079;28;20017;-59
2021/08/09 01:07:32;;;;;;;0.95;0.20;;;;;;;;;;5073910;28;20048;-59
2021/08/09 01:10:02;;;;;;;1.63;0.30;;;;;;;;;;5073538;28;20025;-58
2021/08/09 01:12:56;;;;;;;1.13;0.30;;;;;;;;;;5073676;28;20016;-59
2021/08/09 01:15:34;;;;;;;0.68;0.20;;;;;;;;;;5053144;28;20044;-59
2021/08/09 01:18:01;;;;;;;0.88;0.30;;;;;;;;;;5072714;28;20024;-59
2021/08/09 01:20:47;;;;;;;1.73;0.40;;;;;;;;;;5073780;28;20020;-58
2021/08/09 01:23:32;;;;;;;1.83;0.30;;;;;;;;;;5055530;28;20024;-59
2021/08/09 01:26:36;;;;;;;0.73;0.30;;;;;;;;;;5073858;28;20649;-59
2021/08/09 01:29:02;;;;;;;1.65;0.43;;;;;;;;;;5004017;28;20034;-57
2021/08/09 01:31:32;;;;;;;0.85;0.40;;;;;;;;;;5008707;28;20022;-59
2021/08/09 01:33:58;;;;;;;2.05;0.43;;;;;;;;;;5011638;28;20026;-59
2021/08/09 01:36:23;;;;;;;1.60;0.30;;;;;;;;;;5011356;28;20476;-59
2021/08/09 01:38:49;;;;;;;2.28;0.40;;;;;;;;;;4991286;28;20178;-59
2021/08/09 01:41:16;;;;;;;1.75;0.60;;;;;;;;;;4995979;28;20476;-59
2021/08/09 01:43:41;;;;;;;0.47;0.30;;;;;;;;;;5011067;28;20030;-59
2021/08/09 01:46:07;;;;;;;0.65;0.35;;;;;;;;;;5005552;28;20124;-58
2021/08/09 01:48:32;;;;;;;1.35;0.63;;;;;;;;;;4999366;28;20054;-57
2021/08/09 01:50:58;;;;;;;1.08;0.43;;;;;;;;;;5001187;28;20026;-59
2021/08/09 01:53:24;;;;;;;0.98;0.30;;;;;;;;;;5010658;28;20037;-59
2021/08/09 01:55:49;;;;;;;1.75;0.50;;;;;;;;;;5011500;28;20108;-58
2021/08/09 01:58:15;;;;;;;2.67;0.32;;;;;;;;;;5001583;28;20031;-59
2021/08/09 02:00:40;;;;;;;1.48;0.40;;;;;;;;;;5050724;28;20029;-59
2021/08/09 02:03:05;;;;;;;0.55;0.30;;;;;;;;;;5071948;28;20111;-59
2021/08/09 02:05:30;;;;;;;1.63;0.40;;;;;;;;;;5072654;28;20029;-59
2021/08/09 02:07:56;;;;;;;1.27;0.50;;;;;;;;;;5066421;28;20399;-59
2021/08/09 02:10:25;;;;;;;0.82;0.43;;;;;;;;;;5054917;28;20451;-58
2021/08/09 02:12:54;;;;;;;0.95;0.32;;;;;;;;;;5072272;28;20264;-59
2021/08/09 02:15:25;;;;;;;2.92;0.50;;;;;;;;;;5068555;28;20017;-59
2021/08/09 02:17:58;;;;;;;1.67;0.30;;;;;;;;;;5053062;28;20048;-57
2021/08/09 02:20:27;;;;;;;1.15;0.40;;;;;;;;;;5071133;28;20024;-57
2021/08/09 02:22:55;;;;;;;0.93;0.35;;;;;;;;;;5072107;28;20032;-57
2021/08/09 02:25:22;;;;;;;2.80;0.70;;;;;;;;;;5072803;28;20056;-56
2021/08/09 02:27:55;;;;;;;4.63;1.00;;;;;;;;;;5072085;28;20024;-58
2021/08/09 02:30:22;;;;;;;3.30;0.80;;;;;;;;;;5072455;28;20028;-59
2021/08/09 02:32:50;;;;;;;2.38;0.70;;;;;;;;;;5072312;28;20062;-59
2021/08/09 02:35:17;;;;;;;2.33;0.70;;;;;;;;;;5072202;28;20043;-58
2021/08/09 02:37:43;;;;;;;3.35;0.90;;;;;;;;;;5072478;28;20013;-58
2021/08/09 02:40:09;;;;;;;2.22;0.85;;;;;;;;;;5071384;28;20043;-58
2021/08/09 02:42:35;;;;;;;2.25;0.73;;;;;;;;;;5071749;28;20017;-57
2021/08/09 02:45:00;;;;;;;1.38;0.70;;;;;;;;;;5072292;28;20419;-56
2021/08/09 02:47:26;;;;;;;3.97;0.82;;;;;;;;;;5072526;28;20020;-58
2021/08/09 02:49:51;;;;;;;2.83;0.75;;;;;;;;;;5071871;28;20064;-56
2021/08/09 02:52:17;;;;;;;1.67;0.60;;;;;;;;;;5071662;28;20028;-59
2021/08/09 02:54:45;;;;;;;1.83;0.50;;;;;;;;;;5071924;28;20051;-59
2021/08/09 02:57:12;;;;;;;1.83;0.40;;;;;;;;;;5071985;28;20016;-59
2021/08/09 02:59:37;;;;;;;2.15;0.30;;;;;;;;;;5053490;28;20063;-58
2021/08/09 03:02:05;;;;;;;0.90;0.43;;;;;;;;;;5050142;28;20049;-58
2021/08/09 03:04:31;;;;;;;1.73;0.40;;;;;;;;;;5071155;28;20039;-58
2021/08/09 03:06:56;;;;;;;1.13;0.50;;;;;;;;;;5071803;28;20040;-54
2021/08/09 03:09:22;;;;;;;2.10;0.50;;;;;;;;;;5071441;28;20545;-58
2021/08/09 03:11:47;;;;;;;3.17;0.30;;;;;;;;;;5071367;28;20013;-58
2021/08/09 03:14:25;;;;;;;1.45;0.50;;;;;;;;;;5071135;28;20029;-56
2021/08/09 03:16:50;;;;;;;2.08;0.40;;;;;;;;;;5067956;28;20020;-59
2021/08/09 03:19:16;;;;;;;1.52;0.35;;;;;;;;;;5072009;28;20028;-59
2021/08/09 03:21:48;;;;;;;1.85;0.75;;;;;;;;;;5071885;28;20024;-58
2021/08/09 03:24:13;;;;;;;1.90;0.40;;;;;;;;;;5061696;28;20013;-59
2021/08/09 03:26:38;;;;;;;1.17;0.45;;;;;;;;;;5068289;28;20103;-58
2021/08/09 03:29:04;;;;;;;1.23;0.38;;;;;;;;;;5071597;28;20021;-59
2021/08/09 03:31:29;;;;;;;1.70;0.50;;;;;;;;;;5071543;28;20066;-59
2021/08/09 03:33:54;;;;;;;1.10;0.50;;;;;;;;;;5071495;28;20029;-59
2021/08/09 03:36:19;;;;;;;1.98;0.40;;;;;;;;;;5071791;28;20115;-58
2021/08/09 03:38:44;;;;;;;1.45;0.70;;;;;;;;;;5071410;28;20020;-60
2021/08/09 03:41:10;;;;;;;0.70;0.50;;;;;;;;;;5071426;28;20032;-59
2021/08/09 03:43:35;;;;;;;1.58;0.40;;;;;;;;;;5071485;28;20028;-59
2021/08/09 03:46:00;;;;;;;1.08;0.40;;;;;;;;;;5067838;28;20017;-58
2021/08/09 03:48:25;;;;;;;2.22;0.68;;;;;;;;;;5060951;28;20016;-58
2021/08/09 03:50:51;;;;;;;1.65;0.40;;;;;;;;;;5071170;28;20029;-57
2021/08/09 03:53:16;;;;;;;2.15;0.73;;;;;;;;;;5070684;28;20013;-58
2021/08/09 03:55:41;;;;;;;1.60;0.40;;;;;;;;;;5071202;28;20020;-58
2021/08/09 03:58:06;;;;;;;3.13;0.60;;;;;;;;;;5071457;28;20466;-58
2021/08/09 04:00:33;;;;;;;0.73;0.35;;;;;;;;;;5071491;28;20359;-57
2021/08/09 04:02:58;;;;;;;2.05;0.40;;;;;;;;;;5071310;28;20103;-59
2021/08/09 04:05:23;;;;;;;1.77;0.55;;;;;;;;;;5070866;28;20159;-57
2021/08/09 04:07:50;;;;;;;1.55;0.50;;;;;;;;;;5052857;28;20040;-59
2021/08/09 04:10:15;;;;;;;2.83;0.70;;;;;;;;;;5071367;28;20497;-59
2021/08/09 04:12:41;;;;;;;0.63;0.40;;;;;;;;;;5073945;28;20032;-59
2021/08/09 04:15:07;;;;;;;1.70;0.47;;;;;;;;;;5072309;28;20027;-59
2021/08/09 04:17:33;;;;;;;2.28;0.73;;;;;;;;;;5073596;28;20377;-59
2021/08/09 04:19:59;;;;;;;3.75;0.60;;;;;;;;;;5075199;28;20026;-59
2021/08/09 04:22:24;;;;;;;2.33;0.63;;;;;;;;;;5074448;28;20024;-59
2021/08/09 04:24:49;;;;;;;3.30;0.80;;;;;;;;;;5075008;28;20056;-59
2021/08/09 04:27:14;;;;;;;1.15;0.60;;;;;;;;;;5074093;28;20029;-59
2021/08/09 04:29:40;;;;;;;1.73;1.08;;;;;;;;;;5061861;28;20059;-58
2021/08/09 04:32:10;;;;;;;1.13;0.50;;;;;;;;;;5068256;28;20020;-58
2021/08/09 04:34:35;;;;;;;0.95;0.50;;;;;;;;;;5074947;28;20438;-59
2021/08/09 04:37:01;;;;;;;3.13;0.90;;;;;;;;;;5074632;28;20052;-57
2021/08/09 04:39:26;;;;;;;2.03;0.65;;;;;;;;;;5074889;28;20030;-59
2021/08/09 04:41:51;;;;;;;2.83;0.70;;;;;;;;;;5074108;28;20382;-58
2021/08/09 04:44:16;;;;;;;2.22;0.70;;;;;;;;;;5074495;28;20036;-59
2021/08/09 04:46:41;;;;;;;1.92;0.70;;;;;;;;;;5056650;28;20100;-59
2021/08/09 04:49:07;;;;;;;2.25;0.50;;;;;;;;;;5074088;28;20375;-59
2021/08/09 04:51:32;;;;;;;1.30;0.63;;;;;;;;;;5073598;28;20476;-59
2021/08/09 04:53:57;;;;;;;4.68;0.98;;;;;;;;;;5074732;28;20024;-58
2021/08/09 04:56:22;;;;;;;2.30;0.88;;;;;;;;;;5074136;28;20066;-58
2021/08/09 04:58:47;;;;;;;3.17;0.60;;;;;;;;;;5074427;28;20482;-58
2021/08/09 05:01:13;;;;;;;1.90;0.75;;;;;;;;;;5073752;28;20030;-58
2021/08/09 05:03:39;;;;;;;2.40;0.75;;;;;;;;;;5073730;28;20024;-58
2021/08/09 05:06:06;;;;;;;3.95;0.70;;;;;;;;;;5073635;28;20056;-59
2021/08/09 05:08:31;;;;;;;1.80;0.70;;;;;;;;;;5073875;28;20492;-58
2021/08/09 05:10:57;;;;;;;5.10;0.95;;;;;;;;;;5073883;28;20036;-59
2021/08/09 05:13:22;;;;;;;4.55;0.90;;;;;;;;;;5073941;28;20050;-59
2021/08/09 05:15:47;;;;;;;2.20;0.80;;;;;;;;;;5073649;28;20017;-56
2021/08/09 05:18:14;;;;;;;1.55;0.57;;;;;;;;;;5074039;28;20382;-59
2021/08/09 05:20:39;;;;;;;3.22;0.63;;;;;;;;;;5073590;28;20031;-59
2021/08/09 05:23:04;;;;;;;1.63;0.80;;;;;;;;;;5072522;28;20021;-56
2021/08/09 05:25:31;;;;;;;3.15;0.77;;;;;;;;;;5073451;28;20522;-58
2021/08/09 05:27:56;;;;;;;2.13;0.70;;;;;;;;;;5070928;28;20489;-58
2021/08/09 05:30:22;;;;;;;1.52;0.70;;;;;;;;;;5073096;28;20024;-59
2021/08/09 05:32:47;;;;;;;2.45;0.80;;;;;;;;;;5073139;28;20028;-58
2021/08/09 05:35:12;;;;;;;1.85;0.60;;;;;;;;;;5072893;28;20016;-58
2021/08/09 05:37:37;;;;;;;1.42;0.60;;;;;;;;;;5073429;28;20393;-58
2021/08/09 05:40:03;;;;;;;4.70;1.05;;;;;;;;;;5073532;28;20044;-57
2021/08/09 05:42:29;;;;;;;1.67;0.50;;;;;;;;;;5073294;28;20028;-58
2021/08/09 05:44:54;;;;;;;1.58;0.50;;;;;;;;;;5073225;28;20020;-57
2021/08/09 05:47:19;;;;;;;3.53;0.68;;;;;;;;;;5058837;28;20024;-59
2021/08/09 05:49:45;;;;;;;1.95;0.70;;;;;;;;;;5057353;28;20073;-60
2021/08/09 05:52:20;;;;;;;1.83;0.60;;;;;;;;;;5069230;28;20023;-57
2021/08/09 05:54:45;;;;;;;1.98;0.47;;;;;;;;;;5073462;28;20381;-58
2021/08/09 05:57:10;;;;;;;4.30;0.75;;;;;;;;;;5073268;28;20111;-59
2021/08/09 05:59:35;;;;;;;1.50;0.50;;;;;;;;;;5073322;28;20020;-57
2021/08/09 06:02:01;;;;;;;3.28;0.47;;;;;;;;;;5073075;28;20055;-59
2021/08/09 06:04:26;;;;;;;3.70;0.80;;;;;;;;;;5072917;28;20089;-58
2021/08/09 06:06:51;;;;;;;3.38;0.70;;;;;;;;;;5072408;28;20048;-55
2021/08/09 06:09:16;;;;;;;1.60;0.70;;;;;;;;;;5071672;28;20381;-58
2021/08/09 06:11:42;;;;;;;3.10;0.40;;;;;;;;;;5072801;28;20108;-60
2021/08/09 06:14:07;;;;;;;1.48;0.52;;;;;;;;;;5072948;28;20146;-59
2021/08/09 06:16:33;;;;;;;2.05;0.50;;;;;;;;;;5071601;28;20036;-59
2021/08/09 06:18:58;;;;;;;2.97;0.65;;;;;;;;;;5072812;28;20012;-59
2021/08/09 06:21:23;;;;;;;1.45;0.50;;;;;;;;;;5071880;28;20028;-58
2021/08/09 06:23:48;;;;;;;1.63;0.40;;;;;;;;;;5072918;28;20020;-59
2021/08/09 06:26:14;;;;;;;1.65;0.45;;;;;;;;;;5072502;28;20042;-55
2021/08/09 06:28:39;;;;;;;1.65;0.45;;;;;;;;;;5072585;28;20050;-59
2021/08/09 06:31:04;;;;;;;1.83;0.43;;;;;;;;;;5072025;28;20039;-59
2021/08/09 06:33:29;;;;;;;0.65;0.30;;;;;;;;;;5071904;28;20031;-58
2021/08/09 06:35:54;;;;;;;2.50;0.52;;;;;;;;;;5068350;28;20017;-60
2021/08/09 06:38:20;;;;;;;1.45;1.13;;;;;;;;;;5040346;28;20078;-59
2021/08/09 06:40:45;;;;;;;1.38;0.85;;;;;;;;;;5079266;28;20122;-59
2021/08/09 06:43:11;;;;;;;1.75;0.30;;;;;;;;;;5071161;28;20028;-59
2021/08/09 06:45:40;;;;;;;0.82;0.28;;;;;;;;;;5071999;28;20369;-57
2021/08/09 06:48:05;;;;;;;1.75;0.30;;;;;;;;;;5063303;28;20029;-58
2021/08/09 06:50:30;;;;;;;3.20;0.63;;;;;;;;;;5070808;28;20070;-58
2021/08/09 06:52:55;;;;;;;1.40;0.30;;;;;;;;;;5069868;28;20012;-58
2021/08/09 06:55:21;;;;;;;1.17;0.30;;;;;;;;;;5065592;28;20020;-60
2021/08/09 06:57:46;;;;;;;1.63;0.30;;;;;;;;;;5073163;28;20374;-59
2021/08/09 07:00:11;;;;;;;1.90;0.20;;;;;;;;;;5059167;28;20078;-57
2021/08/09 07:02:36;;;;;;;1.05;0.30;;;;;;;;;;5060926;28;20025;-58
2021/08/09 07:05:02;;;;;;;0.60;0.30;;;;;;;;;;5077885;28;20109;-59
2021/08/09 07:07:27;;;;;;;0.95;0.35;;;;;;;;;;5075091;28;20047;-58
2021/08/09 07:09:52;;;;;;;1.70;0.40;;;;;;;;;;5069221;28;20024;-59
2021/08/09 07:12:18;;;;;;;2.38;0.28;;;;;;;;;;5092139;28;20035;-59
2021/08/09 07:14:43;;;;;;;1.42;0.30;;;;;;;;;;5068120;28;20032;-59
2021/08/09 07:17:08;;;;;;;1.27;0.30;;;;;;;;;;5069261;28;20067;-60
2021/08/09 07:19:35;;;;;;;0.88;0.20;;;;;;;;;;5074407;28;20432;-58
2021/08/09 07:22:02;;;;;;;1.88;0.30;;;;;;;;;;5083311;28;20024;-59
2021/08/09 07:24:27;;;;;;;2.20;0.22;;;;;;;;;;5071267;28;20032;-59
2021/08/09 07:26:53;;;;;;;1.85;0.28;;;;;;;;;;5053719;28;20078;-58
2021/08/09 07:29:18;;;;;;;2.08;0.20;;;;;;;;;;5071356;28;20363;-59
2021/08/09 07:31:43;;;;;;;0.98;0.20;;;;;;;;;;5070752;28;20016;-59
2021/08/09 07:34:08;;;;;;;1.80;0.40;;;;;;;;;;5059246;28;20019;-58
2021/08/09 07:36:34;;;;;;;2.67;0.30;;;;;;;;;;5071056;28;20085;-59
2021/08/09 07:38:59;;;;;;;2.17;0.50;;;;;;;;;;5071567;28;20412;-60
2021/08/09 07:41:24;;;;;;;2.00;0.80;;;;;;;;;;5070927;28;20286;-56
2021/08/09 07:43:49;;;;;;;0.95;0.30;;;;;;;;;;5053007;28;20027;-59
2021/08/09 07:46:15;;;;;;;2.45;0.40;;;;;;;;;;5071459;28;20048;-59
2021/08/09 07:48:40;;;;;;;1.95;0.40;;;;;;;;;;5075392;28;20047;-59
2021/08/09 07:51:06;;;;;;;2.03;0.55;;;;;;;;;;5073866;28;20025;-60
2021/08/09 07:53:31;;;;;;;1.55;0.63;;;;;;;;;;5074479;28;20024;-59
2021/08/09 07:55:56;;;;;;;2.38;0.55;;;;;;;;;;5072079;28;20067;-60
2021/08/09 07:58:21;;;;;;;1.92;0.40;;;;;;;;;;5069687;28;20093;-58
2021/08/09 08:00:47;;;;;;;1.10;0.40;;;;;;;;;;5066963;28;20478;-59
2021/08/09 08:03:12;;;;;;;1.17;0.47;;;;;;;;;;5067977;28;20474;-59
2021/08/09 08:05:38;;;;;;;1.23;0.30;;;;;;;;;;5072419;28;20024;-59
2021/08/09 08:08:04;;;;;;;2.42;1.08;;;;;;;;;;5060575;28;20109;-59
2021/08/09 08:10:29;;;;;;;1.88;1.02;;;;;;;;;;5071039;28;20462;-58
2021/08/09 08:12:54;;;;;;;1.65;0.30;;;;;;;;;;5086704;28;20024;-59
2021/08/09 08:15:20;;;;;;;1.58;0.35;;;;;;;;;;5082468;28;20024;-59
2021/08/09 08:17:45;;;;;;;1.95;0.30;;;;;;;;;;5075043;28;20427;-59
2021/08/09 08:20:10;;;;;;;1.80;0.40;;;;;;;;;;5059142;28;20033;-59
2021/08/09 08:22:36;;;;;;;2.17;0.30;;;;;;;;;;5071942;28;20028;-60
2021/08/09 08:25:01;;;;;;;0.93;0.30;;;;;;;;;;5074062;28;20028;-59
2021/08/09 08:27:26;;;;;;;0.85;0.30;;;;;;;;;;5075373;28;20016;-59
2021/08/09 08:29:52;;;;;;;1.37;0.30;;;;;;;;;;5073943;28;20025;-58
2021/08/09 08:32:17;;;;;;;0.98;0.28;;;;;;;;;;5076041;28;20288;-59
2021/08/09 08:34:43;;;;;;;2.58;0.40;;;;;;;;;;5080209;28;20480;-59
2021/08/09 08:37:08;;;;;;;1.02;0.20;;;;;;;;;;5072932;28;20467;-58
2021/08/09 08:39:33;;;;;;;1.30;0.30;;;;;;;;;;5073840;28;20484;-56
2021/08/09 08:41:59;;;;;;;1.80;0.30;;;;;;;;;;5073824;28;20025;-58
2021/08/09 08:44:25;;;;;;;1.13;0.30;;;;;;;;;;5071141;28;20016;-58
2021/08/09 08:46:51;;;;;;;0.95;0.30;;;;;;;;;;5064659;28;20032;-57
2021/08/09 08:49:16;;;;;;;1.00;0.20;;;;;;;;;;5059707;28;20359;-58
2021/08/09 08:51:42;;;;;;;0.75;0.20;;;;;;;;;;5073559;28;20074;-59
2021/08/09 08:54:08;;;;;;;1.75;0.25;;;;;;;;;;5074139;28;20123;-59
2021/08/09 08:56:36;;;;;;;1.35;0.47;;;;;;;;;;5073361;28;20415;-59
2021/08/09 08:59:02;;;;;;;1.38;0.20;;;;;;;;;;5072324;28;20482;-58
2021/08/09 09:01:37;;;;;;;1.58;0.30;;;;;;;;;;5073091;28;20020;-59
2021/08/09 09:04:21;;;;;;;0.82;0.30;;;;;;;;;;5072670;28;20094;-58
2021/08/09 09:06:46;;;;;;;1.23;0.20;;;;;;;;;;5072140;28;20040;-59
2021/08/09 09:09:22;;;;;;;1.40;0.30;;;;;;;;;;5057995;28;20368;-59
2021/08/09 09:11:47;;;;;;;2.05;0.32;;;;;;;;;;5061427;28;20059;-59
2021/08/09 09:14:12;;;;;;;1.63;0.30;;;;;;;;;;5073955;28;20478;-58
2021/08/09 09:16:45;;;;;;;1.13;0.20;;;;;;;;;;5063593;28;20048;-58
2021/08/09 09:19:11;;;;;;;0.57;0.20;;;;;;;;;;5074155;28;20263;-59
2021/08/09 09:21:37;;;;;;;1.38;0.30;;;;;;;;;;5074157;28;20062;-59
2021/08/09 09:24:21;;;;;;;1.85;0.20;;;;;;;;;;5073338;28;20493;-59
2021/08/09 09:26:57;;;;;;;1.27;0.30;;;;;;;;;;5073767;28;20056;-59
2021/08/09 09:29:23;;;;;;;1.92;0.20;;;;;;;;;;5073501;28;20027;-59
2021/08/09 09:31:49;;;;;;;1.65;0.40;;;;;;;;;;5073518;28;20020;-57
2021/08/09 09:34:16;;;;;;;1.67;0.20;;;;;;;;;;5073215;28;20020;-59
2021/08/09 09:36:47;;;;;;;0.80;0.40;;;;;;;;;;5072673;28;20051;-58
2021/08/09 09:39:24;;;;;;;0.70;0.30;;;;;;;;;;5073326;28;20025;-59
2021/08/09 09:41:51;;;;;;;1.75;0.30;;;;;;;;;;5073539;28;20020;-59
2021/08/09 09:44:23;;;;;;;2.47;0.30;;;;;;;;;;5073356;28;20020;-59
2021/08/09 09:46:48;;;;;;;1.42;0.20;;;;;;;;;;5072692;28;20041;-56
2021/08/09 09:49:30;;;;;;;0.60;0.20;;;;;;;;;;5073044;28;20051;-59
2021/08/09 09:51:55;;;;;;;1.80;0.20;;;;;;;;;;5072919;28;20271;-60
2021/08/09 09:54:23;;;;;;;1.35;0.20;;;;;;;;;;5068920;28;20031;-59
2021/08/09 09:56:48;;;;;;;1.42;0.30;;;;;;;;;;5060602;28;20025;-59
2021/08/09 09:59:14;;;;;;;2.92;0.20;;;;;;;;;;5057686;28;20016;-59
2021/08/09 10:01:40;;;;;;;1.63;0.20;;;;;;;;;;5072745;28;20025;-59
2021/08/09 10:04:05;;;;;;;1.25;0.20;;;;;;;;;;5072670;28;20089;-59
2021/08/09 10:06:31;;;;;;;1.15;0.20;;;;;;;;;;5072071;28;20502;-59
2021/08/09 10:08:57;;;;;;;0.88;0.30;;;;;;;;;;5064923;28;20017;-60
2021/08/09 10:11:23;;;;;;;0.65;0.20;;;;;;;;;;5053048;28;20021;-58
2021/08/09 10:13:49;;;;;;;0.88;0.20;;;;;;;;;;5053622;28;20012;-59
2021/08/09 10:16:14;;;;;;;0.40;0.10;;;;;;;;;;5063611;28;20042;-59
2021/08/09 10:18:51;;;;;;;0.85;0.10;;;;;;;;;;5071861;28;20433;-58
2021/08/09 10:21:16;;;;;;;0.60;0.00;;;;;;;;;;5072206;28;20105;-59
2021/08/09 10:23:45;;;;;;;0.75;0.20;;;;;;;;;;5070345;28;20067;-59
2021/08/09 10:26:30;;;;;;;0.45;0.20;;;;;;;;;;5070599;28;20031;-58
2021/08/09 10:28:55;;;;;;;1.08;0.10;;;;;;;;;;5066873;28;20025;-60
2021/08/09 10:31:30;;;;;;;1.37;0.20;;;;;;;;;;5065642;28;20033;-59
2021/08/09 10:33:56;;;;;;;0.52;0.15;;;;;;;;;;5070713;28;20399;-59
2021/08/09 10:36:22;;;;;;;0.30;0.10;;;;;;;;;;5064854;28;20111;-59
2021/08/09 10:38:49;;;;;;;0.63;0.10;;;;;;;;;;5057436;28;20090;-59
2021/08/09 10:41:14;;;;;;;1.08;0.10;;;;;;;;;;5067570;28;20024;-59
2021/08/09 10:43:58;;;;;;;0.30;0.10;;;;;;;;;;5058233;28;20364;-59
2021/08/09 10:46:37;;;;;;;0.50;0.15;;;;;;;;;;5061722;28;20361;-59
2021/08/09 10:49:02;;;;;;;0.60;0.20;;;;;;;;;;5059516;28;20404;-59
2021/08/09 10:52:03;;;;;;;1.00;0.25;;;;;;;;;;5064000;28;20046;-57
2021/08/09 10:54:29;;;;;;;0.73;0.20;;;;;;;;;;5020073;28;20029;-57
2021/08/09 10:56:55;;;;;;;2.08;0.20;;;;;;;;;;5027230;28;20056;-58
2021/08/09 10:59:39;;;;;;;0.55;0.15;;;;;;;;;;5013825;28;20033;-59
2021/08/09 11:02:05;;;;;;;1.00;0.17;;;;;;;;;;5015212;28;20036;-57
2021/08/09 11:04:30;;;;;;;0.80;0.20;;;;;;;;;;5008455;28;20104;-59
2021/08/09 11:06:56;;;;;;;0.68;0.10;;;;;;;;;;5017333;28;20042;-59
2021/08/09 11:09:33;;;;;;;2.83;0.40;;;;;;;;;;5013530;28;20050;-58
2021/08/09 11:12:11;;;;;;;0.77;0.10;;;;;;;;;;5023030;28;20021;-59
2021/08/09 11:14:56;;;;;;;1.25;0.20;;;;;;;;;;5020805;28;20032;-59
2021/08/09 11:17:21;;;;;;;0.70;0.20;;;;;;;;;;5002268;28;20077;-60
2021/08/09 11:19:47;;;;;;;1.25;0.20;;;;;;;;;;4999403;28;20044;-60
2021/08/09 11:22:17;;;;;;;0.70;0.10;;;;;;;;;;5008519;28;20121;-59
2021/08/09 11:24:42;;;;;;;1.35;0.20;;;;;;;;;;5014147;28;20052;-59
2021/08/09 11:27:07;;;;;;;2.47;0.20;;;;;;;;;;5016046;28;20025;-59
2021/08/09 11:29:51;;;;;;;0.77;0.17;;;;;;;;;;5060925;28;20255;-59
2021/08/09 11:32:33;;;;;;;2.13;0.20;;;;;;;;;;5060484;28;20031;-59
2021/08/09 11:34:59;;;;;;;0.77;0.13;;;;;;;;;;5061344;28;20076;-60
2021/08/09 11:37:24;;;;;;;0.73;0.20;;;;;;;;;;5066733;28;20026;-60
2021/08/09 11:39:49;;;;;;;1.20;0.20;;;;;;;;;;5059617;28;20099;-59
2021/08/09 11:42:15;;;;;;;0.57;0.40;;;;;;;;;;5064460;28;20138;-59
2021/08/09 11:44:40;;;;;;;0.70;0.10;;;;;;;;;;5068114;28;20752;-60
2021/08/09 11:47:05;;;;;;;1.33;0.20;;;;;;;;;;5071175;28;20035;-59
2021/08/09 11:49:30;;;;;;;0.33;0.10;;;;;;;;;;5071295;28;20032;-59
2021/08/09 11:51:59;;;;;;;1.00;0.20;;;;;;;;;;5071306;28;20259;-59
2021/08/09 11:54:36;;;;;;;1.33;0.20;;;;;;;;;;5070928;28;20017;-59
2021/08/09 11:57:02;;;;;;;1.77;0.32;;;;;;;;;;5070845;28;20085;-59
2021/08/09 11:59:27;;;;;;;0.45;0.20;;;;;;;;;;5071535;28;20103;-60
2021/08/09 12:02:04;;;;;;;1.13;0.30;;;;;;;;;;5071062;28;20440;-60
2021/08/09 12:04:40;;;;;;;0.45;0.20;;;;;;;;;;5070151;28;20105;-58
2021/08/09 12:07:15;;;;;;;0.95;0.20;;;;;;;;;;5052508;28;20067;-59
2021/08/09 12:09:41;;;;;;;0.90;0.20;;;;;;;;;;5071164;28;20033;-60
2021/08/09 12:12:07;;;;;;;1.20;0.20;;;;;;;;;;5070830;28;20046;-59
2021/08/09 12:14:33;;;;;;;0.90;0.20;;;;;;;;;;5057729;28;20016;-59
2021/08/09 12:16:59;;;;;;;0.60;0.30;;;;;;;;;;5063757;28;20141;-59
2021/08/09 12:19:35;;;;;;;0.30;0.20;;;;;;;;;;5060285;28;20016;-59
2021/08/09 12:22:07;;;;;;;0.63;0.30;;;;;;;;;;5053974;28;20023;-60
2021/08/09 12:24:32;;;;;;;1.65;0.40;;;;;;;;;;5067851;28;20020;-59
2021/08/09 12:27:12;;;;;;;0.73;0.20;;;;;;;;;;5069635;28;20052;-60
2021/08/09 12:29:38;;;;;;;0.98;0.22;;;;;;;;;;5069915;28;20021;-60
2021/08/09 12:32:13;;;;;;;2.30;0.20;;;;;;;;;;5057496;28;20017;-59
2021/08/09 12:34:43;;;;;;;0.75;0.38;;;;;;;;;;5059211;28;20267;-59
2021/08/09 12:37:11;;;;;;;0.57;0.30;;;;;;;;;;5055686;28;20086;-59
2021/08/09 12:39:36;;;;;;;1.90;0.30;;;;;;;;;;5067751;28;20479;-60
2021/08/09 12:42:31;;;;;;;0.80;0.30;;;;;;;;;;5074502;28;20024;-60
2021/08/09 12:44:56;;;;;;;2.35;0.40;;;;;;;;;;5064914;28;20029;-60
2021/08/09 12:47:21;;;;;;;1.13;0.33;;;;;;;;;;5074112;28;20032;-60
2021/08/09 12:49:48;;;;;;;0.97;0.40;;;;;;;;;;5067744;28;20443;-60
2021/08/09 12:52:14;;;;;;;0.80;0.30;;;;;;;;;;5073841;28;20752;-60
2021/08/09 12:54:39;;;;;;;1.47;0.40;;;;;;;;;;5074631;28;20029;-60
2021/08/09 12:57:04;;;;;;;2.40;0.50;;;;;;;;;;5074355;28;20020;-61
2021/08/09 12:59:29;;;;;;;1.58;0.40;;;;;;;;;;5074226;28;20063;-60
2021/08/09 13:01:55;;;;;;;0.73;0.40;;;;;;;;;;5073858;28;20024;-60
2021/08/09 13:04:20;;;;;;;1.05;0.45;;;;;;;;;;5073502;28;20668;-60
2021/08/09 13:06:45;;;;;;;1.35;0.40;;;;;;;;;;5072620;28;20501;-60
2021/08/09 13:09:11;;;;;;;1.13;0.35;;;;;;;;;;5074032;28;20095;-61
2021/08/09 13:11:36;;;;;;;0.93;0.52;;;;;;;;;;5056091;28;20025;-60
2021/08/09 13:14:02;;;;;;;1.58;0.40;;;;;;;;;;5073041;28;20020;-61
2021/08/09 13:16:29;;;;;;;0.50;0.30;;;;;;;;;;5073612;28;20378;-61
2021/08/09 13:18:55;;;;;;;2.15;0.40;;;;;;;;;;5073830;28;20012;-61
2021/08/09 13:21:20;;;;;;;1.42;0.30;;;;;;;;;;5055348;28;20591;-61
2021/08/09 13:23:46;;;;;;;3.17;0.40;;;;;;;;;;5073359;28;20074;-61
2021/08/09 13:26:13;;;;;;;2.17;0.40;;;;;;;;;;5052649;28;20033;-62
2021/08/09 13:28:38;;;;;;;0.93;0.40;;;;;;;;;;5055786;28;20021;-61
2021/08/09 13:31:03;;;;;;;2.50;0.30;;;;;;;;;;5073843;28;20070;-61
2021/08/09 13:33:28;;;;;;;0.40;0.30;;;;;;;;;;5073050;28;20085;-61
2021/08/09 13:35:54;;;;;;;1.03;0.40;;;;;;;;;;5093938;28;20020;-61
2021/08/09 13:38:19;;;;;;;0.80;0.40;;;;;;;;;;5093803;28;20051;-61
2021/08/09 13:40:44;;;;;;;1.50;0.23;;;;;;;;;;5066171;28;20047;-61
2021/08/09 13:43:09;;;;;;;1.00;0.30;;;;;;;;;;5072825;28;20273;-60
2021/08/09 13:45:38;;;;;;;0.57;0.22;;;;;;;;;;5072982;28;20013;-59
2021/08/09 13:48:03;;;;;;;2.47;0.30;;;;;;;;;;5072856;28;20153;-60
2021/08/09 13:50:28;;;;;;;0.43;0.30;;;;;;;;;;5071721;28;20099;-60
2021/08/09 13:52:54;;;;;;;0.80;0.30;;;;;;;;;;5072684;28;20127;-60
2021/08/09 13:55:20;;;;;;;1.55;0.57;;;;;;;;;;5073612;28;20025;-60
2021/08/09 13:57:45;;;;;;;1.55;0.30;;;;;;;;;;5073214;28;20466;-60
2021/08/09 14:00:10;;;;;;;0.87;0.30;;;;;;;;;;5073433;28;20036;-60
2021/08/09 14:02:36;;;;;;;0.82;0.20;;;;;;;;;;5072348;28;20020;-60
2021/08/09 14:05:01;;;;;;;0.55;0.30;;;;;;;;;;5072628;28;20032;-60
2021/08/09 14:07:26;;;;;;;2.75;0.52;;;;;;;;;;5072585;28;20405;-60
2021/08/09 14:09:51;;;;;;;2.40;0.40;;;;;;;;;;5073101;28;20025;-58
2021/08/09 14:12:17;;;;;;;0.97;0.30;;;;;;;;;;5072371;28;20020;-60
2021/08/09 14:14:42;;;;;;;1.40;0.30;;;;;;;;;;5072133;28;20350;-59
2021/08/09 14:17:07;;;;;;;3.03;0.33;;;;;;;;;;5072372;28;20034;-61
2021/08/09 14:19:32;;;;;;;0.50;0.30;;;;;;;;;;5072832;28;20374;-60
2021/08/09 14:21:58;;;;;;;2.90;0.50;;;;;;;;;;5072132;28;20748;-59
2021/08/09 14:24:25;;;;;;;1.65;0.30;;;;;;;;;;5072052;28;20679;-59
2021/08/09 14:26:50;;;;;;;2.45;0.40;;;;;;;;;;5072045;28;20089;-60
2021/08/09 14:29:16;;;;;;;1.70;0.30;;;;;;;;;;5072177;28;20471;-59
2021/08/09 14:31:41;;;;;;;1.45;0.30;;;;;;;;;;5071903;28;20039;-60
2021/08/09 14:34:06;;;;;;;2.17;0.30;;;;;;;;;;5071258;28;20420;-60
2021/08/09 14:36:31;;;;;;;2.57;0.40;;;;;;;;;;5071558;28;20036;-60
2021/08/09 14:39:00;;;;;;;1.30;0.30;;;;;;;;;;5071992;28;20080;-60
2021/08/09 14:41:25;;;;;;;0.57;0.30;;;;;;;;;;5071933;28;20024;-60
2021/08/09 14:43:50;;;;;;;2.40;0.50;;;;;;;;;;5071347;28;20419;-60